Impacts TAF Board
For situational awareness. Not to be used for flight planning purposes.
IDs:

KLBB - Lubbock Intl Arpt, TX, US

Issued at 1720 UTC 30 Oct 2020
Updated at 1740 UTC 30 Oct 2020
Potential Impact None Slight Moderate High
Time1653Z 30/18Z 30/19Z 30/20Z 30/21Z 30/22Z 30/23Z 31/00Z 31/01Z 31/02Z 31/03Z 31/04Z 31/05Z 31/06Z>>
Type OBS PRVL PRVL PRVL PRVL PRVL PRVL PRVL PRVL PRVL PRVL PRVL PRVL PRVL
VIS 10 >6 >6 >6 >6 >6 >6 >6 >6 >6 >6 >6 >6 >6
CIG -- -- -- -- -- -- -- -- -- -- -- -- -- --
Cover FEW SCT SCT SCT SCT SCT SCT SCT SCT SCT SCT SCT SCT SCT
FltCat VFR VFR VFR VFR VFR VFR VFR VFR VFR VFR VFR VFR VFR VFR
WX -- -- -- -- -- -- -- -- -- -- -- -- -- --
WDir 220 200 200 200 200 200 200 200 200 200 200 200 200 200
WSpd 10 11 11 11 11 11 11 11 11 11 11 11 11 11
WGst -- -- -- -- -- -- -- -- -- -- -- -- -- --
Raw TAF
KLBB 301720Z 3018/3118 20011KT P6SM SCT250

Raw METAR
KLBB 301653Z 22010KT 10SM FEW180 FEW260 15/04 A3030 RMK AO2 SLP243 VIRGA DSNT NW-NE T01500039
KLBB 301553Z 23007KT 10SM FEW180 FEW250 12/04 A3031 RMK AO2 SLP251 VIRGA DSNT NW-NE T01170044
KLBB 301453Z 23003KT 10SM FEW015 FEW150 FEW250 07/03 A3032 RMK AO2 SLP258 VIRGA DSNT N FU FEW015 NW T00670033 53014

METAR Board
Radar Display
Forecast Discussion
For situational awareness. Not to be used for flight planning purposes.